createdAt,value
2022-11-07T00:01:19.527Z,0.80
2022-11-07T00:03:46.730Z,0.77
2022-11-07T00:06:13.532Z,0.70
2022-11-07T00:08:40.328Z,0.65
2022-11-07T00:11:07.635Z,0.57
2022-11-07T00:13:34.676Z,0.57
2022-11-07T00:16:03.389Z,0.70
2022-11-07T00:18:30.441Z,0.50
2022-11-07T00:21:04.656Z,0.60
2022-11-07T00:23:33.714Z,0.40
2022-11-07T00:26:04.540Z,0.60
2022-11-07T00:28:39.794Z,0.63
2022-11-07T00:31:07.910Z,0.60
2022-11-07T00:33:35.197Z,0.57
2022-11-07T00:36:02.490Z,0.60
2022-11-07T00:38:29.639Z,0.70
2022-11-07T00:41:04.895Z,0.70
2022-11-07T00:43:32.469Z,0.70
2022-11-07T00:46:01.802Z,0.60
2022-11-07T00:48:29.529Z,0.55
2022-11-07T00:50:56.325Z,0.70
2022-11-07T00:53:23.969Z,0.60
2022-11-07T00:55:50.747Z,0.60
2022-11-07T00:58:17.927Z,0.50
2022-11-07T01:00:45.287Z,0.70
2022-11-07T01:03:30.614Z,0.90
2022-11-07T01:06:03.011Z,0.70
2022-11-07T01:08:31.108Z,0.77
2022-11-07T01:10:59.257Z,0.63
2022-11-07T01:13:26.370Z,0.65
2022-11-07T01:15:53.621Z,0.70
2022-11-07T01:18:20.922Z,0.73
2022-11-07T01:20:49.527Z,0.88
2022-11-07T01:23:18.033Z,0.80
2022-11-07T01:25:45.052Z,0.80
2022-11-07T01:28:11.907Z,0.75
2022-11-07T01:30:43.579Z,0.80
2022-11-07T01:33:10.760Z,0.70
2022-11-07T01:35:37.823Z,0.75
2022-11-07T01:38:04.915Z,1.20
2022-11-07T01:40:33.821Z,1.10
2022-11-07T01:43:00.562Z,0.93
2022-11-07T01:45:30.919Z,1.05
2022-11-07T01:48:01.177Z,1.08
2022-11-07T01:50:28.413Z,1.10
2022-11-07T01:52:57.137Z,1.10
2022-11-07T01:55:29.702Z,1.05
2022-11-07T01:58:01.878Z,1.10
2022-11-07T02:00:30.997Z,0.77
2022-11-07T02:03:08.002Z,0.80
2022-11-07T02:05:38.824Z,0.88
2022-11-07T02:08:08.441Z,0.98
2022-11-07T02:10:36.741Z,0.63
2022-11-07T02:13:03.945Z,0.90
2022-11-07T02:15:32.472Z,1.10
2022-11-07T02:18:00.189Z,0.75
2022-11-07T02:20:27.342Z,1.02
2022-11-07T02:23:13.562Z,0.77
2022-11-07T02:25:40.868Z,1.00
2022-11-07T02:28:10.132Z,0.90
2022-11-07T02:30:38.836Z,0.80
2022-11-07T02:33:17.885Z,0.80
2022-11-07T02:35:47.216Z,0.70
2022-11-07T02:38:37.088Z,0.90
2022-11-07T02:41:14.392Z,0.70
2022-11-07T02:43:51.546Z,1.15
2022-11-07T02:46:18.663Z,0.85
2022-11-07T02:48:48.624Z,0.65
2022-11-07T02:51:15.574Z,1.17
2022-11-07T02:53:42.587Z,0.88
2022-11-07T02:56:10.047Z,0.93
2022-11-07T02:58:36.930Z,0.82
2022-11-07T03:01:12.246Z,0.90
2022-11-07T03:03:45.067Z,0.90
2022-11-07T03:06:15.518Z,0.60
2022-11-07T03:08:43.187Z,0.82
2022-11-07T03:11:11.745Z,1.05
2022-11-07T03:13:38.893Z,0.90
2022-11-07T03:16:10.387Z,0.75
2022-11-07T03:18:37.788Z,0.70
2022-11-07T03:21:05.619Z,0.77
2022-11-07T03:23:34.390Z,0.80
2022-11-07T03:26:01.122Z,1.05
2022-11-07T03:28:27.889Z,0.90
2022-11-07T03:30:54.677Z,0.70
2022-11-07T03:33:21.492Z,0.98
2022-11-07T03:35:48.609Z,0.77
2022-11-07T03:38:15.380Z,0.90
2022-11-07T03:40:42.116Z,0.90
2022-11-07T03:43:08.923Z,0.90
2022-11-07T03:45:35.716Z,0.75
2022-11-07T03:48:02.490Z,0.90
2022-11-07T03:50:29.517Z,1.10
2022-11-07T03:52:56.285Z,0.77
2022-11-07T03:55:23.040Z,0.80
2022-11-07T03:57:49.814Z,0.88
2022-11-07T04:00:17.639Z,0.60
2022-11-07T04:02:44.995Z,0.80
2022-11-07T04:05:12.392Z,0.90
2022-11-07T04:07:39.240Z,0.57
2022-11-07T04:10:06.413Z,0.80
2022-11-07T04:12:52.138Z,0.70
2022-11-07T04:15:37.530Z,0.80
2022-11-07T04:18:04.448Z,0.90
2022-11-07T04:20:31.185Z,0.90
2022-11-07T04:22:58.004Z,1.05
2022-11-07T04:25:44.972Z,1.00
2022-11-07T04:28:11.750Z,0.63
2022-11-07T04:30:38.513Z,0.88
2022-11-07T04:33:05.632Z,0.98
2022-11-07T04:35:33.800Z,1.38
2022-11-07T04:38:01.590Z,0.98
2022-11-07T04:40:29.659Z,0.77
2022-11-07T04:42:57.037Z,0.95
2022-11-07T04:45:23.863Z,0.57
2022-11-07T04:47:50.627Z,0.77
2022-11-07T04:50:19.046Z,0.90
2022-11-07T04:52:46.952Z,0.57
2022-11-07T04:55:20.786Z,0.90
2022-11-07T04:57:48.519Z,0.75
2022-11-07T05:00:16.602Z,0.95
2022-11-07T05:02:43.488Z,0.93
2022-11-07T05:05:10.846Z,0.68
2022-11-07T05:07:38.053Z,0.88
2022-11-07T05:10:10.916Z,1.20
2022-11-07T05:12:38.958Z,1.17
2022-11-07T05:15:06.325Z,1.27
2022-11-07T05:17:33.118Z,0.95
2022-11-07T05:19:59.840Z,1.00
2022-11-07T05:22:45.230Z,0.95
2022-11-07T05:25:11.974Z,1.10
2022-11-07T05:27:38.865Z,1.00
2022-11-07T05:30:06.697Z,1.00
2022-11-07T05:32:41.293Z,0.85
2022-11-07T05:35:08.404Z,1.00
2022-11-07T05:37:35.194Z,0.85
2022-11-07T05:40:01.903Z,0.93
2022-11-07T05:42:28.649Z,1.23
2022-11-07T05:44:55.570Z,1.10
2022-11-07T05:47:22.392Z,0.80
2022-11-07T05:49:49.124Z,0.80
2022-11-07T05:52:15.896Z,1.05
2022-11-07T05:54:42.650Z,0.98
2022-11-07T05:57:09.398Z,0.82
2022-11-07T05:59:36.188Z,1.10
2022-11-07T06:02:03.114Z,0.98
2022-11-07T06:04:29.969Z,1.00
2022-11-07T06:06:56.814Z,0.90
2022-11-07T06:09:23.585Z,1.40
2022-11-07T06:11:50.358Z,1.30
2022-11-07T06:14:17.157Z,1.00
2022-11-07T06:16:43.927Z,1.38
2022-11-07T06:19:10.705Z,1.00
2022-11-07T06:21:37.476Z,1.10
2022-11-07T06:24:04.511Z,1.10
2022-11-07T06:26:31.403Z,1.23
2022-11-07T06:28:58.304Z,1.02
2022-11-07T06:31:25.416Z,1.17
2022-11-07T06:33:52.374Z,1.05
2022-11-07T06:36:19.380Z,0.95
2022-11-07T06:38:46.506Z,1.20
2022-11-07T06:41:14.935Z,1.50
2022-11-07T06:43:42.287Z,1.10
2022-11-07T06:46:13.606Z,1.27
2022-11-07T06:48:40.838Z,0.98
2022-11-07T06:51:09.874Z,1.23
2022-11-07T06:53:37.286Z,1.27
2022-11-07T06:56:06.950Z,1.45
2022-11-07T06:58:56.953Z,1.45
2022-11-07T07:01:24.115Z,1.33
2022-11-07T07:03:51.144Z,1.67
2022-11-07T07:06:55.222Z,1.48
2022-11-07T07:09:33.892Z,1.48
2022-11-07T07:12:07.695Z,1.40
2022-11-07T07:14:37.586Z,1.30
2022-11-07T07:17:19.205Z,1.63
2022-11-07T07:19:48.702Z,1.80
2022-11-07T07:22:15.670Z,1.85
2022-11-07T07:24:46.155Z,2.47
2022-11-07T07:27:15.907Z,2.58
2022-11-07T07:29:43.268Z,1.88
2022-11-07T07:32:10.240Z,1.55
2022-11-07T07:34:37.697Z,1.48
2022-11-07T07:37:04.843Z,1.35
2022-11-07T07:39:31.930Z,1.30
2022-11-07T07:42:04.122Z,1.85
2022-11-07T07:44:36.095Z,1.70
2022-11-07T07:47:07.040Z,1.60
2022-11-07T07:49:39.961Z,1.42
2022-11-07T07:52:07.372Z,1.55
2022-11-07T07:54:37.772Z,1.30
2022-11-07T07:57:25.966Z,1.25
2022-11-07T08:00:13.086Z,1.10
2022-11-07T08:02:45.903Z,1.08
2022-11-07T08:05:27.085Z,1.45
2022-11-07T08:07:59.182Z,1.30
2022-11-07T08:10:42.393Z,1.42
2022-11-07T08:15:48.580Z,2.15
2022-11-07T08:18:24.595Z,1.80
2022-11-07T08:21:11.783Z,1.20
2022-11-07T08:24:01.947Z,1.70
2022-11-07T08:26:31.747Z,1.35
2022-11-07T08:58:19.000Z,1.27
2022-11-07T09:01:19.219Z,1.00
2022-11-07T09:04:03.733Z,1.27
2022-11-07T09:06:32.843Z,1.20
2022-11-07T09:09:01.315Z,1.27
2022-11-07T09:11:28.531Z,1.17
2022-11-07T09:14:05.725Z,1.38
2022-11-07T09:16:44.366Z,1.17
2022-11-07T09:19:11.202Z,1.40
2022-11-07T09:24:33.644Z,1.00
2022-11-07T09:27:25.460Z,1.40
2022-11-07T09:29:52.531Z,1.17
2022-11-07T09:32:49.295Z,1.20
2022-11-07T09:35:16.476Z,1.00
2022-11-07T09:37:47.264Z,0.95
2022-11-07T09:40:30.982Z,1.05
2022-11-07T09:43:32.864Z,1.30
2022-11-07T09:46:22.159Z,0.90
2022-11-07T09:49:02.890Z,1.30
2022-11-07T09:51:43.651Z,1.30
2022-11-07T09:54:21.666Z,1.30
2022-11-07T09:56:48.486Z,0.90
2022-11-07T09:59:24.723Z,1.73
2022-11-07T10:01:51.613Z,1.42
2022-11-07T10:05:24.269Z,1.48
2022-11-07T10:08:17.130Z,1.17
2022-11-07T10:10:44.848Z,0.93
2022-11-07T10:14:00.143Z,1.20
2022-11-07T10:17:31.230Z,1.35
2022-11-07T10:20:39.300Z,1.10
2022-11-07T10:26:35.811Z,1.48
2022-11-07T10:29:51.053Z,1.15
2022-11-07T10:32:59.784Z,1.23
2022-11-07T10:36:56.141Z,1.40
2022-11-07T10:39:42.410Z,1.45
2022-11-07T10:42:26.267Z,1.33
2022-11-07T10:45:15.242Z,0.90
2022-11-07T10:48:02.209Z,1.48
2022-11-07T10:50:43.575Z,1.20
2022-11-07T10:53:48.430Z,1.05
2022-11-07T11:00:33.543Z,1.00
2022-11-07T11:09:36.640Z,0.90
2022-11-07T11:12:21.456Z,0.82
2022-11-07T11:16:16.152Z,1.38
2022-11-07T11:19:30.136Z,0.95
2022-11-07T11:26:14.478Z,1.23
2022-11-07T11:28:54.499Z,0.68
2022-11-07T11:31:41.381Z,0.90
2022-11-07T11:34:40.070Z,1.00
2022-11-07T11:37:34.654Z,1.23
2022-11-07T11:41:24.968Z,1.00
2022-11-07T11:47:34.282Z,0.80
2022-11-07T11:51:07.421Z,1.02
2022-11-07T11:53:48.543Z,1.40
2022-11-07T11:57:09.913Z,0.80
2022-11-07T12:00:23.832Z,1.05
2022-11-07T12:06:30.691Z,1.42
2022-11-07T12:09:05.559Z,0.90
2022-11-07T12:12:55.788Z,0.80
2022-11-07T12:16:15.740Z,0.52
2022-11-07T12:19:23.553Z,0.90
2022-11-07T12:22:32.159Z,0.80
2022-11-07T12:33:22.201Z,1.00
2022-11-07T12:46:56.982Z,0.65
2022-11-07T13:02:23.682Z,0.98
2022-11-07T13:12:17.505Z,1.08
2022-11-07T13:16:08.893Z,0.75
2022-11-07T13:18:54.016Z,0.90
2022-11-07T13:22:24.567Z,1.02
2022-11-07T13:48:42.346Z,0.85
2022-11-07T13:55:43.811Z,0.80
2022-11-07T13:59:14.273Z,1.02
2022-11-07T14:02:27.123Z,1.00
2022-11-07T14:05:32.691Z,1.20
2022-11-07T14:14:00.969Z,1.58
2022-11-07T14:16:40.811Z,1.10
2022-11-07T14:19:33.143Z,0.85
2022-11-07T14:28:20.693Z,1.00
2022-11-07T14:37:57.760Z,0.82
2022-11-07T14:40:44.586Z,0.93
2022-11-07T14:52:16.552Z,0.82
2022-11-07T14:59:01.580Z,1.20
2022-11-07T15:23:25.692Z,1.10
2022-11-07T15:30:46.413Z,1.58
2022-11-07T15:36:23.009Z,1.23
2022-11-07T15:40:33.640Z,0.93
2022-11-07T15:42:57.991Z,1.00
2022-11-07T15:46:40.570Z,1.08
2022-11-07T15:54:21.607Z,0.60
2022-11-07T16:00:19.914Z,0.80
2022-11-07T16:07:15.441Z,0.85
2022-11-07T16:24:06.898Z,1.40
2022-11-07T16:27:27.996Z,1.85
2022-11-07T16:37:25.181Z,1.27
2022-11-07T16:49:08.704Z,1.50
2022-11-07T17:00:24.257Z,1.45
2022-11-07T17:03:34.025Z,1.50
2022-11-07T17:13:37.612Z,1.67
2022-11-07T17:16:46.956Z,1.58
2022-11-07T17:19:47.038Z,2.00
2022-11-07T17:22:20.112Z,1.58
2022-11-07T17:24:58.711Z,1.95
2022-11-07T17:28:04.843Z,1.55
2022-11-07T17:31:30.144Z,1.98
2022-11-07T17:34:28.028Z,1.92
2022-11-07T17:44:33.123Z,1.40
2022-11-07T18:24:22.835Z,3.05
2022-11-07T18:27:26.150Z,2.05
2022-11-07T18:37:20.858Z,2.65
2022-11-07T18:47:18.870Z,2.60
2022-11-07T18:53:48.974Z,2.10
2022-11-07T19:00:52.751Z,2.92
2022-11-07T19:03:28.634Z,4.07
2022-11-07T19:07:39.804Z,4.57
2022-11-07T19:10:11.223Z,6.75
2022-11-07T19:17:58.375Z,4.20
2022-11-07T19:22:05.379Z,3.22
2022-11-07T19:28:00.516Z,3.00
2022-11-07T19:30:52.482Z,2.85
2022-11-07T19:37:20.624Z,3.58
2022-11-07T19:39:57.240Z,2.90
2022-11-07T19:42:58.082Z,2.63
2022-11-07T19:49:06.346Z,3.15
2022-11-07T19:52:11.685Z,2.85
2022-11-07T19:58:16.933Z,2.63
2022-11-07T20:01:39.538Z,3.45
2022-11-07T20:05:12.923Z,2.92
2022-11-07T20:22:26.912Z,2.75
2022-11-07T20:25:06.960Z,2.83
2022-11-07T20:32:52.879Z,3.03
2022-11-07T20:36:08.633Z,4.90
2022-11-07T20:39:06.327Z,3.58
2022-11-07T20:42:28.670Z,3.22
2022-11-07T20:48:50.401Z,3.50
2022-11-07T20:51:51.771Z,3.65
2022-11-07T20:57:35.500Z,3.30
2022-11-07T21:00:25.889Z,3.42
2022-11-07T21:07:34.325Z,3.33
2022-11-07T21:13:37.212Z,3.80
2022-11-07T21:16:23.220Z,3.47
2022-11-07T21:18:59.610Z,3.95
2022-11-07T21:21:53.433Z,4.10
2022-11-07T21:26:51.122Z,3.95
2022-11-07T21:33:34.687Z,4.28
2022-11-07T21:36:12.069Z,5.68
2022-11-07T21:38:46.720Z,6.10
2022-11-07T21:41:49.813Z,5.00
2022-11-07T21:44:31.427Z,4.40
2022-11-07T21:47:01.608Z,4.43
2022-11-07T21:49:36.159Z,4.00
2022-11-07T21:52:20.812Z,3.47
2022-11-07T21:55:01.242Z,3.65
2022-11-07T21:57:52.160Z,3.55
2022-11-07T22:00:51.584Z,3.95
2022-11-07T22:04:04.690Z,3.03
2022-11-07T22:06:37.130Z,3.65
2022-11-07T22:09:08.463Z,3.45
2022-11-07T22:11:35.600Z,3.40
2022-11-07T22:14:03.084Z,2.92
2022-11-07T22:16:30.077Z,3.03
2022-11-07T22:18:59.346Z,3.38
2022-11-07T22:21:26.221Z,3.28
2022-11-07T22:23:53.094Z,3.20
2022-11-07T22:26:22.771Z,2.70
2022-11-07T22:28:50.079Z,2.78
2022-11-07T22:31:30.115Z,2.90
2022-11-07T22:33:59.141Z,2.30
2022-11-07T22:36:26.486Z,2.75
2022-11-07T22:38:53.409Z,2.55
2022-11-07T22:41:22.946Z,2.72
2022-11-07T22:43:50.767Z,2.40
2022-11-07T22:46:23.014Z,2.60
2022-11-07T22:48:51.133Z,3.20
2022-11-07T22:51:21.291Z,2.67
2022-11-07T22:53:48.574Z,2.70
2022-11-07T22:56:19.724Z,2.47
2022-11-07T22:58:47.622Z,2.72
2022-11-07T23:01:23.107Z,2.35
2022-11-07T23:03:51.065Z,3.10
2022-11-07T23:06:19.385Z,2.50
2022-11-07T23:08:47.328Z,2.83
2022-11-07T23:14:10.424Z,4.35
2022-11-07T23:16:39.751Z,2.60
2022-11-07T23:19:10.884Z,2.22
2022-11-07T23:21:38.120Z,2.55
2022-11-07T23:24:05.876Z,2.80
2022-11-07T23:26:34.080Z,3.30
2022-11-07T23:29:10.505Z,3.13
2022-11-07T23:31:43.216Z,3.00
2022-11-07T23:34:10.644Z,2.92
2022-11-07T23:36:37.892Z,2.53
2022-11-07T23:39:06.204Z,2.60
2022-11-07T23:41:33.261Z,2.67
2022-11-07T23:44:00.108Z,2.80
2022-11-07T23:46:45.459Z,2.50
2022-11-07T23:49:30.785Z,2.20
2022-11-07T23:51:57.951Z,2.65
2022-11-07T23:54:43.993Z,2.50
2022-11-07T23:57:11.073Z,2.85
2022-11-07T23:59:56.537Z,3.15
